createdAt,value
2022-09-20T00:01:57.673Z,91.50
2022-09-20T00:04:26.998Z,91.20
2022-09-20T00:06:54.121Z,91.20
2022-09-20T00:09:21.230Z,91.60
2022-09-20T00:11:48.521Z,90.80
2022-09-20T00:14:15.693Z,91.60
2022-09-20T00:16:43.063Z,91.50
2022-09-20T00:19:16.328Z,90.90
2022-09-20T00:21:43.385Z,90.50
2022-09-20T00:24:10.729Z,90.40
2022-09-20T00:26:38.340Z,90.40
2022-09-20T00:29:05.435Z,90.30
2022-09-20T00:31:32.596Z,90.00
2022-09-20T00:34:18.375Z,89.90
2022-09-20T00:36:45.457Z,90.50
2022-09-20T00:39:13.832Z,90.20
2022-09-20T00:41:43.081Z,90.10
2022-09-20T00:44:28.932Z,90.10
2022-09-20T00:46:56.180Z,90.10
2022-09-20T00:49:26.534Z,90.10
2022-09-20T00:51:59.960Z,90.20
2022-09-20T00:54:27.271Z,90.00
2022-09-20T00:56:54.372Z,90.10
2022-09-20T00:59:33.158Z,90.00
2022-09-20T01:02:11.423Z,89.80
2022-09-20T01:04:40.332Z,89.50
2022-09-20T01:07:13.733Z,90.00
2022-09-20T01:09:43.243Z,90.10
2022-09-20T01:12:13.614Z,90.10
2022-09-20T01:14:42.026Z,90.20
2022-09-20T01:17:11.561Z,90.50
2022-09-20T01:19:42.288Z,90.60
2022-09-20T01:22:14.833Z,90.80
2022-09-20T01:24:50.716Z,90.90
2022-09-20T01:27:17.745Z,90.90
2022-09-20T01:29:51.028Z,91.10
2022-09-20T01:32:24.492Z,91.40
2022-09-20T01:35:04.187Z,91.40
2022-09-20T01:37:47.216Z,91.40
2022-09-20T01:40:34.878Z,91.50
2022-09-20T01:43:17.386Z,91.30
2022-09-20T01:45:48.906Z,91.80
2022-09-20T01:48:19.134Z,91.50
2022-09-20T01:50:52.440Z,91.60
2022-09-20T01:53:38.310Z,91.60
2022-09-20T01:56:17.646Z,91.80
2022-09-20T01:59:22.185Z,92.00
2022-09-20T02:02:01.072Z,92.20
2022-09-20T02:04:28.069Z,92.50
2022-09-20T02:07:03.763Z,92.60
2022-09-20T02:09:30.970Z,92.60
2022-09-20T02:12:10.475Z,92.50
2022-09-20T02:14:43.699Z,92.40
2022-09-20T02:17:13.775Z,92.20
2022-09-20T02:19:53.715Z,92.40
2022-09-20T02:22:32.823Z,92.40
2022-09-20T02:25:05.853Z,92.40
2022-09-20T02:27:53.327Z,92.60
2022-09-20T02:30:29.540Z,92.70
2022-09-20T02:33:14.778Z,92.90
2022-09-20T02:35:49.750Z,93.10
2022-09-20T02:38:22.686Z,93.40
2022-09-20T02:41:01.965Z,93.70
2022-09-20T02:43:35.071Z,93.90
2022-09-20T02:46:02.114Z,94.10
2022-09-20T02:48:49.733Z,94.50
2022-09-20T02:51:19.475Z,94.90
2022-09-20T02:54:03.398Z,94.80
2022-09-20T02:56:49.073Z,95.10
2022-09-20T02:59:28.123Z,95.10
2022-09-20T03:02:06.153Z,95.30
2022-09-20T03:04:37.767Z,95.70
2022-09-20T03:07:10.415Z,96.30
2022-09-20T03:09:53.075Z,96.50
2022-09-20T03:12:20.071Z,97.00
2022-09-20T03:15:07.327Z,97.30
2022-09-20T03:17:44.421Z,97.30
2022-09-20T03:20:25.078Z,97.20
2022-09-20T03:22:52.126Z,97.00
2022-09-20T03:25:30.571Z,97.30
2022-09-20T03:28:05.291Z,97.30
2022-09-20T03:30:51.438Z,97.20
2022-09-20T03:33:26.762Z,97.20
2022-09-20T03:36:00.375Z,97.20
2022-09-20T03:38:45.426Z,97.20
2022-09-20T03:41:31.340Z,97.20
2022-09-20T03:44:10.735Z,97.10
2022-09-20T03:46:45.731Z,97.10
2022-09-20T03:49:15.940Z,97.10
2022-09-20T03:51:52.250Z,97.30
2022-09-20T03:54:38.043Z,97.20
2022-09-20T03:57:25.643Z,96.90
2022-09-20T04:00:14.937Z,96.90
2022-09-20T04:03:03.141Z,97.10
2022-09-20T04:05:52.763Z,97.40
2022-09-20T04:08:25.693Z,97.30
2022-09-20T04:10:53.076Z,97.10
2022-09-20T04:13:35.755Z,96.60
2022-09-20T04:16:06.660Z,96.70
2022-09-20T04:18:52.309Z,96.90
2022-09-20T04:21:26.458Z,98.00
2022-09-20T04:24:00.775Z,98.60
2022-09-20T04:26:28.852Z,98.40
2022-09-20T04:29:02.916Z,97.80
2022-09-20T04:31:41.489Z,97.70
2022-09-20T04:34:48.848Z,97.50
2022-09-20T04:37:22.860Z,97.20
2022-09-20T04:39:57.140Z,97.60
2022-09-20T04:42:24.937Z,98.10
2022-09-20T04:45:03.352Z,98.20
2022-09-20T04:47:43.081Z,97.80
2022-09-20T04:50:22.880Z,97.40
2022-09-20T04:53:04.114Z,96.30
2022-09-20T04:55:35.364Z,97.30
2022-09-20T04:58:04.667Z,97.00
2022-09-20T05:00:50.820Z,96.50
2022-09-20T05:03:19.863Z,95.50
2022-09-20T05:06:04.810Z,95.80
2022-09-20T05:08:40.582Z,96.40
2022-09-20T05:11:30.349Z,96.90
2022-09-20T05:13:57.730Z,96.20
2022-09-20T05:16:55.416Z,95.10
2022-09-20T05:19:33.686Z,94.70
2022-09-20T05:22:19.836Z,95.10
2022-09-20T05:24:46.925Z,95.70
2022-09-20T05:27:20.080Z,95.60
2022-09-20T05:30:11.235Z,96.10
2022-09-20T05:32:38.703Z,95.80
2022-09-20T05:35:24.571Z,95.00
2022-09-20T05:38:05.379Z,95.10
2022-09-20T05:40:49.126Z,95.90
2022-09-20T05:43:26.330Z,96.50
2022-09-20T05:46:10.573Z,96.30
2022-09-20T05:48:54.870Z,97.10
2022-09-20T05:51:41.322Z,97.60
2022-09-20T05:54:23.352Z,98.40
2022-09-20T05:56:53.638Z,99.50
2022-09-20T05:59:20.665Z,98.70
2022-09-20T06:02:07.097Z,98.00
2022-09-20T06:04:53.136Z,97.20
2022-09-20T06:07:29.968Z,96.90
2022-09-20T06:10:13.689Z,96.40
2022-09-20T06:12:55.800Z,96.30
2022-09-20T06:15:29.197Z,96.00
2022-09-20T06:17:59.855Z,95.60
2022-09-20T06:20:36.966Z,95.60
2022-09-20T06:23:05.443Z,95.20
2022-09-20T06:26:01.885Z,94.60
2022-09-20T06:28:39.661Z,94.20
2022-09-20T06:31:09.088Z,93.80
2022-09-20T06:33:50.241Z,93.50
2022-09-20T06:36:39.574Z,93.20
2022-09-20T06:39:31.442Z,92.50
2022-09-20T06:42:16.157Z,91.80
2022-09-20T06:44:43.399Z,92.60
2022-09-20T06:47:10.929Z,92.80
2022-09-20T06:53:16.656Z,92.50
2022-09-20T06:55:45.069Z,93.30
2022-09-20T06:58:14.645Z,92.80
2022-09-20T07:00:41.830Z,92.50
2022-09-20T07:03:12.999Z,92.20
2022-09-20T07:05:58.818Z,91.60
2022-09-20T07:08:26.497Z,91.40
2022-09-20T07:11:22.896Z,91.70
2022-09-20T07:13:54.728Z,91.60
2022-09-20T07:16:23.525Z,91.80
2022-09-20T07:18:52.878Z,91.00
2022-09-20T07:21:26.945Z,90.50
2022-09-20T07:24:24.621Z,89.50
2022-09-20T07:34:22.886Z,86.60
2022-09-20T07:40:38.534Z,85.00
2022-09-20T07:43:07.997Z,84.80
2022-09-20T07:45:40.200Z,84.50
2022-09-20T07:48:10.326Z,85.10
2022-09-20T07:50:37.432Z,84.90
2022-09-20T07:56:53.793Z,84.50
2022-09-20T08:00:00.678Z,83.80
2022-09-20T08:05:51.391Z,85.10
2022-09-20T08:08:18.608Z,86.40
2022-09-20T08:11:08.170Z,86.10
2022-09-20T08:21:09.316Z,87.20
2022-09-20T08:23:37.100Z,88.30
2022-09-20T08:26:07.732Z,89.30
2022-09-20T08:28:44.440Z,89.70
2022-09-20T08:32:01.803Z,89.10
2022-09-20T08:34:55.262Z,89.80
2022-09-20T08:41:03.999Z,90.30
2022-09-20T08:43:37.100Z,90.20
2022-09-20T08:46:46.090Z,89.90
2022-09-20T08:49:31.733Z,89.60
2022-09-20T08:52:10.545Z,89.80
2022-09-20T08:54:50.355Z,89.30
2022-09-20T08:57:32.460Z,88.20
2022-09-20T09:03:27.981Z,86.00
2022-09-20T09:06:10.329Z,86.70
2022-09-20T09:08:44.723Z,85.70
2022-09-20T09:11:18.966Z,84.20
2022-09-20T09:14:35.838Z,84.60
2022-09-20T09:17:03.053Z,84.90
2022-09-20T09:20:09.790Z,85.50
2022-09-20T09:25:36.582Z,86.20
2022-09-20T09:28:07.182Z,86.60
2022-09-20T09:30:34.390Z,88.20
2022-09-20T09:40:38.818Z,88.80
2022-09-20T09:53:28.493Z,90.10
2022-09-20T09:55:56.788Z,87.00
2022-09-20T09:59:13.029Z,87.30
2022-09-20T10:01:49.498Z,89.00
2022-09-20T10:04:35.458Z,88.70
2022-09-20T10:07:27.692Z,88.50
2022-09-20T10:09:59.032Z,88.30
2022-09-20T10:12:38.023Z,87.20
2022-09-20T10:18:39.637Z,90.10
2022-09-20T10:24:40.125Z,87.70
2022-09-20T10:27:29.141Z,88.10
2022-09-20T10:30:02.768Z,88.40
2022-09-20T10:32:50.031Z,88.00
2022-09-20T10:35:29.630Z,88.30
2022-09-20T10:37:59.995Z,88.20
2022-09-20T10:40:57.930Z,89.20
2022-09-20T10:43:42.003Z,90.10
2022-09-20T10:46:39.077Z,90.40
2022-09-20T10:49:24.938Z,90.20
2022-09-20T10:52:00.675Z,90.40
2022-09-20T10:54:44.420Z,87.90
2022-09-20T10:57:57.216Z,87.10
2022-09-20T11:00:42.965Z,86.80
2022-09-20T11:03:26.751Z,90.10
2022-09-20T11:06:17.466Z,90.20
2022-09-20T11:08:46.085Z,89.40
2022-09-20T11:11:18.467Z,90.30
2022-09-20T11:13:58.325Z,90.40
2022-09-20T11:16:28.836Z,89.70
2022-09-20T11:19:01.846Z,90.50
2022-09-20T11:21:33.778Z,90.50
2022-09-20T11:24:27.486Z,89.70
2022-09-20T11:27:19.583Z,90.00
2022-09-20T11:30:31.741Z,90.90
2022-09-20T11:33:07.398Z,91.00
2022-09-20T11:35:45.877Z,91.40
2022-09-20T11:38:13.399Z,91.40
2022-09-20T11:40:53.583Z,91.50
2022-09-20T11:43:21.146Z,91.30
2022-09-20T11:45:50.946Z,91.20
2022-09-20T11:48:22.171Z,91.30
2022-09-20T11:50:49.207Z,91.70
2022-09-20T11:53:37.057Z,91.20
2022-09-20T11:56:24.195Z,91.70
2022-09-20T11:58:58.966Z,91.40
2022-09-20T12:01:36.162Z,91.30
2022-09-20T12:04:31.903Z,91.30
2022-09-20T12:07:17.949Z,91.60
2022-09-20T12:09:52.185Z,92.20
2022-09-20T12:12:31.406Z,92.00
2022-09-20T12:14:59.562Z,92.50
2022-09-20T12:17:45.363Z,92.30
2022-09-20T12:20:31.236Z,92.50
2022-09-20T12:23:21.254Z,92.30
2022-09-20T12:26:05.043Z,92.20
2022-09-20T12:28:34.090Z,92.20
2022-09-20T12:31:23.043Z,92.50
2022-09-20T12:34:15.534Z,93.00
2022-09-20T12:36:46.620Z,91.70
2022-09-20T12:39:22.449Z,91.80
2022-09-20T12:41:54.734Z,92.10
2022-09-20T12:44:22.365Z,92.00
2022-09-20T12:46:54.115Z,91.40
2022-09-20T12:49:41.175Z,91.60
2022-09-20T12:52:48.963Z,91.50
2022-09-20T12:55:36.659Z,92.00
2022-09-20T12:58:09.668Z,92.60
2022-09-20T13:00:57.917Z,92.80
2022-09-20T13:03:31.701Z,92.80
2022-09-20T13:06:05.901Z,93.00
2022-09-20T13:08:39.842Z,92.80
2022-09-20T13:11:12.033Z,92.70
2022-09-20T13:13:58.227Z,93.10
2022-09-20T13:16:37.698Z,93.30
2022-09-20T13:19:12.406Z,93.70
2022-09-20T13:22:08.546Z,93.80
2022-09-20T13:24:57.256Z,93.30
2022-09-20T13:27:28.410Z,93.40
2022-09-20T13:30:08.732Z,93.00
2022-09-20T13:36:09.386Z,93.10
2022-09-20T13:38:38.545Z,93.20
2022-09-20T13:41:32.626Z,93.20
2022-09-20T13:44:01.565Z,92.80
2022-09-20T13:46:37.990Z,93.20
2022-09-20T13:49:40.585Z,92.90
2022-09-20T13:52:29.351Z,92.80
2022-09-20T13:58:54.388Z,92.60
2022-09-20T14:01:30.063Z,92.00
2022-09-20T14:04:03.645Z,92.00
2022-09-20T14:06:32.087Z,92.30
2022-09-20T14:09:01.373Z,92.40
2022-09-20T14:12:00.153Z,92.20
2022-09-20T14:14:28.883Z,91.50
2022-09-20T14:17:20.286Z,92.00
2022-09-20T14:19:52.091Z,91.90
2022-09-20T14:22:21.579Z,91.50
2022-09-20T14:25:33.345Z,91.50
2022-09-20T14:28:12.986Z,91.80
2022-09-20T14:30:44.148Z,91.80
2022-09-20T14:33:15.041Z,92.10
2022-09-20T14:36:02.397Z,92.10
2022-09-20T14:38:32.928Z,92.20
2022-09-20T14:41:02.455Z,92.60
2022-09-20T14:43:34.155Z,92.70
2022-09-20T14:46:05.916Z,92.20
2022-09-20T14:48:34.999Z,92.60
2022-09-20T14:51:22.202Z,92.50
2022-09-20T14:53:50.667Z,92.50
2022-09-20T14:56:42.062Z,93.00
2022-09-20T14:59:09.158Z,92.90
2022-09-20T15:01:44.972Z,92.60
2022-09-20T15:04:21.049Z,92.20
2022-09-20T15:06:48.985Z,92.30
2022-09-20T15:09:18.485Z,92.40
2022-09-20T15:11:47.797Z,92.60
2022-09-20T15:14:14.997Z,92.70
2022-09-20T15:16:42.089Z,92.80
2022-09-20T15:19:10.356Z,93.00
2022-09-20T15:21:37.357Z,92.90
2022-09-20T15:24:04.520Z,92.90
2022-09-20T15:26:32.787Z,93.20
2022-09-20T15:29:00.920Z,93.30
2022-09-20T15:31:28.703Z,93.50
2022-09-20T15:33:55.796Z,93.70
2022-09-20T15:36:22.967Z,93.90
2022-09-20T15:38:53.152Z,94.10
2022-09-20T15:41:21.443Z,94.20
2022-09-20T15:43:50.295Z,94.30
2022-09-20T15:46:21.948Z,94.00
2022-09-20T15:48:49.078Z,93.70
2022-09-20T15:51:16.458Z,93.70
2022-09-20T15:53:45.339Z,93.70
2022-09-20T15:56:21.256Z,93.40
2022-09-20T15:58:50.381Z,93.80
2022-09-20T16:01:20.071Z,93.80
2022-09-20T16:03:49.610Z,93.70
2022-09-20T16:06:16.742Z,93.50
2022-09-20T16:08:43.778Z,93.50
2022-09-20T16:11:13.269Z,93.80
2022-09-20T16:13:42.946Z,93.40
2022-09-20T16:16:12.932Z,93.50
2022-09-20T16:18:58.531Z,93.70
2022-09-20T16:21:31.931Z,93.30
2022-09-20T16:24:01.298Z,93.50
2022-09-20T16:26:29.417Z,94.00
2022-09-20T16:28:57.852Z,93.70
2022-09-20T16:31:41.846Z,93.80
2022-09-20T16:34:20.332Z,93.90
2022-09-20T16:36:51.402Z,94.10
2022-09-20T16:39:19.323Z,94.10
2022-09-20T16:41:47.846Z,94.10
2022-09-20T16:44:21.170Z,94.00
2022-09-20T16:46:48.360Z,94.20
2022-09-20T16:49:16.719Z,94.30
2022-09-20T16:51:44.868Z,94.50
2022-09-20T16:54:13.204Z,94.40
2022-09-20T16:56:41.546Z,94.50
2022-09-20T16:59:12.500Z,94.60
2022-09-20T17:02:05.198Z,94.70
2022-09-20T17:05:19.408Z,94.80
2022-09-20T17:08:11.417Z,95.10
2022-09-20T17:10:39.644Z,95.10
2022-09-20T17:13:07.429Z,95.00
2022-09-20T17:15:41.983Z,95.10
2022-09-20T17:18:14.893Z,95.10
2022-09-20T17:20:43.944Z,95.00
2022-09-20T17:23:13.555Z,95.10
2022-09-20T17:25:42.860Z,95.00
2022-09-20T17:28:21.520Z,95.20
2022-09-20T17:30:48.644Z,95.10
2022-09-20T17:33:15.901Z,95.30
2022-09-20T17:35:50.536Z,95.30
2022-09-20T17:38:17.634Z,95.40
2022-09-20T17:40:44.732Z,95.60
2022-09-20T17:43:11.830Z,97.00
2022-09-20T17:45:51.938Z,97.60
2022-09-20T17:48:19.187Z,97.80
2022-09-20T17:50:57.416Z,98.20
2022-09-20T17:53:24.539Z,98.50
2022-09-20T17:55:58.373Z,98.60
2022-09-20T17:58:25.954Z,98.70
2022-09-20T18:01:18.454Z,98.90
2022-09-20T18:03:46.962Z,99.10
2022-09-20T18:06:17.230Z,99.40
2022-09-20T18:08:54.303Z,99.60
2022-09-20T18:11:22.576Z,99.90
2022-09-20T18:13:49.678Z,99.90
2022-09-20T18:16:18.194Z,99.90
2022-09-20T18:18:46.394Z,99.90
2022-09-20T18:21:19.932Z,99.90
2022-09-20T18:23:47.680Z,99.90
2022-09-20T18:26:21.827Z,99.90
2022-09-20T18:28:55.071Z,99.90
2022-09-20T18:31:25.670Z,99.90
2022-09-20T18:33:53.556Z,99.90
2022-09-20T18:36:27.543Z,99.90
2022-09-20T18:38:57.609Z,99.90
2022-09-20T18:41:26.115Z,99.90
2022-09-20T18:44:38.597Z,99.90
2022-09-20T18:47:16.179Z,99.90
2022-09-20T18:50:25.639Z,99.90
2022-09-20T18:52:54.421Z,99.90
2022-09-20T18:55:24.441Z,99.90
2022-09-20T18:57:51.712Z,99.90
2022-09-20T19:00:21.305Z,99.90
2022-09-20T19:02:55.257Z,99.90
2022-09-20T19:05:28.152Z,99.90
2022-09-20T19:08:16.957Z,99.90
2022-09-20T19:10:52.659Z,99.90
2022-09-20T19:13:42.640Z,99.90
2022-09-20T19:16:18.468Z,99.90
2022-09-20T19:18:45.723Z,99.90
2022-09-20T19:21:23.878Z,99.90
2022-09-20T19:24:07.258Z,99.90
2022-09-20T19:26:38.531Z,99.90
2022-09-20T19:32:27.574Z,99.90
2022-09-20T19:34:55.886Z,99.90
2022-09-20T19:41:04.746Z,99.90
2022-09-20T19:43:45.204Z,99.90
2022-09-20T19:49:16.363Z,99.90
2022-09-20T19:51:44.196Z,99.90
2022-09-20T19:54:12.522Z,99.90
2022-09-20T19:57:28.751Z,99.90
2022-09-20T20:00:20.122Z,99.90
2022-09-20T20:02:47.813Z,99.90
2022-09-20T20:05:28.555Z,99.90
2022-09-20T20:07:58.704Z,99.90
2022-09-20T20:11:01.873Z,99.90
2022-09-20T20:13:57.669Z,99.90
2022-09-20T20:19:23.189Z,99.90
2022-09-20T20:21:51.267Z,99.90
2022-09-20T20:24:37.186Z,99.90
2022-09-20T20:27:06.326Z,99.90
2022-09-20T20:29:33.678Z,99.90
2022-09-20T20:32:00.763Z,99.90
2022-09-20T20:34:27.977Z,99.90
2022-09-20T20:37:05.469Z,99.90
2022-09-20T20:39:33.144Z,99.90
2022-09-20T20:48:57.012Z,99.90
2022-09-20T20:51:25.004Z,99.90
2022-09-20T20:53:53.092Z,99.90
2022-09-20T20:56:30.003Z,99.90
2022-09-20T20:59:25.993Z,99.90
2022-09-20T21:01:53.308Z,99.90
2022-09-20T21:04:49.303Z,99.90
2022-09-20T21:07:19.205Z,99.90
2022-09-20T21:09:46.832Z,99.90
2022-09-20T21:15:45.436Z,99.90
2022-09-20T21:18:14.136Z,99.90
2022-09-20T21:20:42.548Z,99.90
2022-09-20T21:27:39.067Z,99.90
2022-09-20T21:30:09.181Z,99.90
2022-09-20T21:32:39.107Z,99.90
2022-09-20T21:35:06.452Z,99.90
2022-09-20T21:37:33.765Z,99.90
2022-09-20T21:40:00.973Z,99.90
2022-09-20T21:42:28.750Z,99.90
2022-09-20T21:44:59.355Z,99.90
2022-09-20T21:47:26.697Z,99.90
2022-09-20T21:49:57.605Z,99.90
2022-09-20T21:52:27.036Z,99.90
2022-09-20T21:54:54.206Z,99.90
2022-09-20T21:57:45.969Z,99.90
2022-09-20T22:00:13.629Z,99.90
2022-09-20T22:02:43.866Z,99.90
2022-09-20T22:05:16.177Z,99.90
2022-09-20T22:07:45.992Z,99.90
2022-09-20T22:10:13.237Z,99.90
2022-09-20T22:13:08.497Z,99.90
2022-09-20T22:15:35.667Z,99.90
2022-09-20T22:18:04.961Z,99.90
2022-09-20T22:20:57.321Z,99.90
2022-09-20T22:23:24.380Z,99.90
2022-09-20T22:29:26.960Z,99.90
2022-09-20T22:31:54.049Z,99.90
2022-09-20T22:34:24.108Z,99.90
2022-09-20T22:36:52.104Z,99.90
2022-09-20T22:39:19.168Z,99.90
2022-09-20T22:41:47.859Z,99.90
2022-09-20T22:44:15.327Z,99.90
2022-09-20T22:46:42.864Z,99.90
2022-09-20T22:49:10.294Z,99.90
2022-09-20T22:51:49.581Z,99.90
2022-09-20T22:54:16.655Z,99.90
2022-09-20T22:56:43.710Z,99.90
2022-09-20T22:59:12.052Z,99.90
2022-09-20T23:01:43.639Z,99.90
2022-09-20T23:04:11.906Z,99.90
2022-09-20T23:06:51.771Z,99.90
2022-09-20T23:09:18.968Z,99.90
2022-09-20T23:11:46.443Z,99.90
2022-09-20T23:14:16.896Z,99.90
2022-09-20T23:16:44.530Z,99.90
2022-09-20T23:19:12.096Z,99.90
2022-09-20T23:21:40.041Z,99.90
2022-09-20T23:24:08.231Z,99.90
2022-09-20T23:26:36.209Z,99.90
2022-09-20T23:29:03.214Z,99.90
2022-09-20T23:31:31.842Z,99.90
2022-09-20T23:33:59.810Z,99.90
2022-09-20T23:36:28.555Z,99.90
2022-09-20T23:38:56.953Z,99.90
2022-09-20T23:41:25.361Z,99.90
2022-09-20T23:43:52.783Z,99.90
2022-09-20T23:46:32.371Z,99.90
2022-09-20T23:48:59.494Z,99.90
2022-09-20T23:51:35.970Z,99.90
2022-09-20T23:54:03.503Z,99.90
2022-09-20T23:56:33.305Z,99.90
2022-09-20T23:59:00.619Z,99.90
